createdAt,value
2022-09-03T00:00:35.501Z,3.80
2022-09-03T00:03:10.273Z,3.63
2022-09-03T00:05:42.758Z,3.50
2022-09-03T00:08:22.575Z,3.70
2022-09-03T00:10:59.111Z,3.85
2022-09-03T00:13:35.061Z,3.70
2022-09-03T00:16:11.418Z,3.65
2022-09-03T00:18:49.055Z,3.78
2022-09-03T00:21:23.621Z,3.42
2022-09-03T00:23:54.331Z,3.25
2022-09-03T00:26:32.178Z,3.80
2022-09-03T00:29:05.430Z,3.40
2022-09-03T00:31:39.310Z,3.40
2022-09-03T00:34:15.292Z,3.28
2022-09-03T00:36:46.690Z,3.25
2022-09-03T00:39:18.737Z,3.00
2022-09-03T00:42:09.531Z,3.20
2022-09-03T00:44:58.830Z,2.70
2022-09-03T00:47:35.880Z,3.17
2022-09-03T00:50:13.331Z,3.15
2022-09-03T00:52:53.380Z,2.72
2022-09-03T00:55:31.671Z,2.85
2022-09-03T00:58:31.604Z,3.10
2022-09-03T01:01:02.466Z,3.10
2022-09-03T01:03:42.164Z,2.90
2022-09-03T01:06:20.525Z,2.80
2022-09-03T01:09:05.304Z,2.70
2022-09-03T01:11:47.733Z,2.78
2022-09-03T01:14:33.386Z,2.83
2022-09-03T01:17:13.263Z,3.00
2022-09-03T01:20:27.061Z,2.53
2022-09-03T01:23:40.562Z,2.90
2022-09-03T01:26:29.394Z,2.50
2022-09-03T01:29:11.330Z,2.78
2022-09-03T01:31:48.468Z,2.60
2022-09-03T01:34:26.579Z,2.60
2022-09-03T01:37:07.490Z,2.50
2022-09-03T01:39:47.187Z,2.63
2022-09-03T01:42:25.400Z,2.63
2022-09-03T01:45:21.800Z,2.92
2022-09-03T01:48:08.301Z,2.50
2022-09-03T01:50:46.932Z,2.70
2022-09-03T01:53:31.089Z,2.70
2022-09-03T01:56:15.620Z,2.90
2022-09-03T01:58:49.616Z,2.83
2022-09-03T02:01:28.471Z,3.42
2022-09-03T02:04:00.342Z,3.75
2022-09-03T02:06:32.314Z,3.10
2022-09-03T02:09:02.234Z,2.80
2022-09-03T02:11:31.724Z,3.30
2022-09-03T02:14:04.140Z,3.35
2022-09-03T02:16:36.572Z,3.35
2022-09-03T02:19:11.269Z,2.80
2022-09-03T02:21:45.572Z,3.00
2022-09-03T02:24:15.330Z,3.15
2022-09-03T02:26:44.771Z,3.47
2022-09-03T02:29:15.439Z,3.25
2022-09-03T02:31:46.721Z,2.97
2022-09-03T02:34:16.471Z,3.20
2022-09-03T02:36:48.732Z,3.20
2022-09-03T02:39:18.990Z,2.83
2022-09-03T02:41:56.620Z,2.90
2022-09-03T02:44:32.030Z,2.72
2022-09-03T02:47:04.801Z,2.80
2022-09-03T02:49:35.022Z,2.85
2022-09-03T02:52:06.930Z,3.15
2022-09-03T02:54:40.083Z,2.88
2022-09-03T02:57:10.499Z,2.50
2022-09-03T02:59:42.009Z,2.65
2022-09-03T03:02:13.324Z,2.58
2022-09-03T03:04:42.990Z,2.67
2022-09-03T03:07:12.388Z,2.30
2022-09-03T03:09:41.919Z,2.50
2022-09-03T03:12:11.609Z,2.20
2022-09-03T03:14:41.370Z,3.15
2022-09-03T03:17:12.359Z,2.70
2022-09-03T03:19:41.982Z,2.97
2022-09-03T03:22:11.347Z,2.63
2022-09-03T03:24:41.223Z,2.42
2022-09-03T03:27:11.731Z,2.78
2022-09-03T03:29:41.259Z,2.80
2022-09-03T03:32:12.140Z,3.03
2022-09-03T03:34:41.648Z,2.45
2022-09-03T03:37:12.580Z,2.83
2022-09-03T03:39:42.111Z,2.83
2022-09-03T03:42:11.809Z,2.83
2022-09-03T03:44:42.750Z,2.80
2022-09-03T03:47:13.680Z,2.70
2022-09-03T03:49:43.790Z,2.55
2022-09-03T03:52:13.241Z,2.40
2022-09-03T03:54:42.969Z,2.65
2022-09-03T03:57:12.440Z,2.30
2022-09-03T03:59:41.933Z,2.50
2022-09-03T04:02:12.873Z,2.70
2022-09-03T04:04:42.855Z,2.90
2022-09-03T04:07:12.376Z,2.60
2022-09-03T04:09:42.027Z,3.05
2022-09-03T04:12:11.431Z,2.28
2022-09-03T04:14:40.927Z,2.80
2022-09-03T04:17:10.408Z,2.70
2022-09-03T04:19:41.345Z,3.03
2022-09-03T04:22:10.977Z,2.97
2022-09-03T04:24:40.506Z,2.80
2022-09-03T04:27:10.024Z,3.10
2022-09-03T04:29:39.455Z,2.92
2022-09-03T04:32:26.040Z,2.83
2022-09-03T04:34:57.763Z,2.75
2022-09-03T04:37:27.272Z,2.70
2022-09-03T04:39:56.899Z,2.90
2022-09-03T04:42:26.510Z,3.10
2022-09-03T04:44:55.904Z,2.70
2022-09-03T04:47:25.541Z,2.70
2022-09-03T04:49:56.451Z,2.80
2022-09-03T04:52:25.990Z,3.03
2022-09-03T04:54:55.402Z,2.70
2022-09-03T04:57:24.958Z,2.78
2022-09-03T04:59:54.315Z,3.22
2022-09-03T05:02:24.088Z,2.95
2022-09-03T05:04:54.507Z,3.03
2022-09-03T05:07:28.797Z,2.72
2022-09-03T05:09:59.019Z,3.05
2022-09-03T05:12:28.487Z,2.92
2022-09-03T05:14:57.867Z,2.78
2022-09-03T05:17:27.460Z,3.10
2022-09-03T05:19:56.828Z,2.85
2022-09-03T05:22:27.960Z,2.50
2022-09-03T05:24:57.458Z,2.53
2022-09-03T05:27:26.838Z,2.75
2022-09-03T05:29:56.356Z,2.55
2022-09-03T05:32:25.758Z,2.97
2022-09-03T05:34:55.258Z,2.17
2022-09-03T05:37:24.968Z,3.00
2022-09-03T05:39:56.079Z,2.60
2022-09-03T05:42:26.307Z,2.40
2022-09-03T05:44:55.737Z,2.35
2022-09-03T05:47:25.318Z,2.50
2022-09-03T05:49:57.069Z,2.50
2022-09-03T05:52:26.562Z,2.40
2022-09-03T05:54:57.530Z,3.00
2022-09-03T05:57:27.024Z,2.50
2022-09-03T05:59:56.381Z,2.78
2022-09-03T06:02:26.456Z,2.50
2022-09-03T06:04:56.336Z,2.83
2022-09-03T06:07:27.680Z,2.60
2022-09-03T06:09:58.792Z,3.05
2022-09-03T06:12:28.329Z,2.30
2022-09-03T06:14:57.785Z,2.38
2022-09-03T06:17:27.270Z,2.85
2022-09-03T06:19:56.852Z,2.55
2022-09-03T06:22:28.853Z,2.50
2022-09-03T06:24:59.867Z,2.55
2022-09-03T06:27:31.139Z,2.78
2022-09-03T06:30:00.674Z,2.50
2022-09-03T06:32:30.202Z,2.60
2022-09-03T06:34:59.735Z,2.92
2022-09-03T06:37:29.073Z,2.67
2022-09-03T06:40:00.039Z,2.42
2022-09-03T06:42:30.194Z,2.60
2022-09-03T06:44:59.544Z,2.60
2022-09-03T06:47:30.296Z,2.70
2022-09-03T06:50:00.523Z,2.45
2022-09-03T06:52:30.224Z,2.58
2022-09-03T06:55:01.498Z,2.67
2022-09-03T06:57:31.303Z,2.60
2022-09-03T07:00:00.693Z,2.45
2022-09-03T07:02:30.215Z,2.83
2022-09-03T07:04:59.563Z,2.78
2022-09-03T07:07:29.039Z,2.30
2022-09-03T07:09:59.964Z,2.53
2022-09-03T07:12:29.450Z,2.45
2022-09-03T07:14:58.787Z,2.65
2022-09-03T07:17:29.875Z,2.50
2022-09-03T07:19:59.207Z,2.45
2022-09-03T07:22:31.721Z,2.72
2022-09-03T07:25:02.796Z,2.55
2022-09-03T07:27:32.270Z,2.60
2022-09-03T07:30:01.818Z,2.40
2022-09-03T07:32:31.379Z,2.78
2022-09-03T07:35:00.761Z,2.80
2022-09-03T07:37:30.315Z,2.60
2022-09-03T07:40:00.131Z,2.63
2022-09-03T07:42:31.467Z,3.00
2022-09-03T07:45:01.451Z,3.00
2022-09-03T07:47:31.229Z,3.20
2022-09-03T07:50:00.960Z,3.40
2022-09-03T07:52:30.480Z,2.90
2022-09-03T07:54:59.882Z,3.30
2022-09-03T07:57:30.896Z,3.28
2022-09-03T08:00:00.296Z,2.42
2022-09-03T08:02:29.635Z,2.50
2022-09-03T08:04:59.116Z,2.50
2022-09-03T08:07:30.236Z,2.50
2022-09-03T08:10:01.693Z,2.33
2022-09-03T08:12:34.216Z,2.45
2022-09-03T08:15:03.767Z,2.72
2022-09-03T08:17:34.395Z,2.50
2022-09-03T08:20:06.576Z,2.30
2022-09-03T08:22:36.026Z,2.30
2022-09-03T08:25:05.525Z,2.70
2022-09-03T08:27:36.497Z,2.47
2022-09-03T08:30:06.436Z,2.15
2022-09-03T08:32:37.266Z,2.50
2022-09-03T08:35:09.716Z,2.55
2022-09-03T08:37:40.056Z,2.55
2022-09-03T08:40:10.976Z,2.65
2022-09-03T08:42:50.898Z,2.60
2022-09-03T08:45:23.016Z,2.95
2022-09-03T08:48:00.346Z,2.40
2022-09-03T08:50:32.586Z,2.50
2022-09-03T08:53:05.949Z,2.65
2022-09-03T08:55:43.087Z,2.53
2022-09-03T08:58:15.875Z,2.72
2022-09-03T09:00:52.401Z,2.40
2022-09-03T09:03:44.887Z,2.40
2022-09-03T09:06:25.497Z,2.40
2022-09-03T09:09:06.206Z,2.45
2022-09-03T09:11:51.028Z,2.63
2022-09-03T09:14:28.734Z,2.38
2022-09-03T09:17:10.254Z,2.40
2022-09-03T09:19:49.357Z,2.30
2022-09-03T09:22:29.075Z,2.35
2022-09-03T09:25:00.861Z,2.30
2022-09-03T09:27:31.453Z,2.50
2022-09-03T09:30:07.175Z,2.65
2022-09-03T09:32:38.075Z,2.30
2022-09-03T09:35:12.550Z,2.58
2022-09-03T09:37:50.609Z,2.35
2022-09-03T09:40:34.180Z,2.40
2022-09-03T09:43:11.663Z,2.42
2022-09-03T09:45:44.818Z,2.63
2022-09-03T09:48:23.047Z,2.33
2022-09-03T09:51:04.810Z,2.47
2022-09-03T09:53:35.456Z,2.55
2022-09-03T09:56:05.337Z,2.40
2022-09-03T09:58:36.656Z,2.50
2022-09-03T10:01:14.668Z,2.40
2022-09-03T10:03:52.899Z,2.60
2022-09-03T10:06:43.137Z,2.40
2022-09-03T10:09:14.696Z,2.40
2022-09-03T10:11:51.176Z,2.30
2022-09-03T10:14:26.977Z,2.40
2022-09-03T10:17:05.639Z,2.70
2022-09-03T10:20:05.987Z,2.08
2022-09-03T10:22:39.344Z,2.13
2022-09-03T10:25:29.062Z,2.20
2022-09-03T10:28:01.576Z,2.30
2022-09-03T10:30:40.469Z,2.00
2022-09-03T10:33:19.397Z,2.00
2022-09-03T10:35:53.947Z,2.20
2022-09-03T10:38:29.733Z,2.05
2022-09-03T10:41:12.922Z,2.40
2022-09-03T10:44:01.495Z,2.55
2022-09-03T10:46:37.550Z,2.60
2022-09-03T10:49:33.881Z,2.40
2022-09-03T10:52:11.347Z,3.17
2022-09-03T10:54:54.650Z,2.55
2022-09-03T10:57:35.492Z,2.75
2022-09-03T11:00:10.316Z,2.50
2022-09-03T11:02:58.591Z,2.35
2022-09-03T11:05:37.447Z,2.78
2022-09-03T11:08:13.919Z,2.08
2022-09-03T11:10:49.346Z,2.60
2022-09-03T11:13:23.857Z,2.45
2022-09-03T11:15:56.873Z,2.40
2022-09-03T11:18:31.128Z,2.20
2022-09-03T11:21:08.876Z,2.20
2022-09-03T11:23:45.103Z,2.15
2022-09-03T11:26:18.472Z,2.30
2022-09-03T11:29:00.382Z,2.35
2022-09-03T11:31:40.838Z,2.35
2022-09-03T11:34:23.309Z,2.38
2022-09-03T11:37:06.370Z,2.50
2022-09-03T11:39:38.461Z,2.45
2022-09-03T11:42:13.443Z,2.45
2022-09-03T11:44:51.721Z,2.58
2022-09-03T11:47:25.650Z,2.53
2022-09-03T11:50:06.529Z,2.60
2022-09-03T11:52:40.828Z,2.60
2022-09-03T11:55:10.728Z,2.90
2022-09-03T11:57:44.346Z,2.45
2022-09-03T12:00:18.984Z,2.55
2022-09-03T12:02:52.398Z,2.33
2022-09-03T12:05:33.497Z,2.40
2022-09-03T12:08:44.251Z,2.40
2022-09-03T12:11:30.856Z,2.28
2022-09-03T12:14:11.614Z,2.50
2022-09-03T12:17:05.144Z,2.20
2022-09-03T12:19:39.961Z,2.40
2022-09-03T12:22:15.448Z,2.40
2022-09-03T12:24:47.487Z,2.50
2022-09-03T12:27:24.607Z,2.42
2022-09-03T12:30:00.408Z,2.60
2022-09-03T12:32:32.703Z,2.58
2022-09-03T12:35:13.936Z,2.40
2022-09-03T12:43:37.588Z,2.38
2022-09-03T12:46:15.613Z,2.42
2022-09-03T12:51:49.022Z,2.05
2022-09-03T12:54:21.763Z,2.50
2022-09-03T12:57:01.663Z,2.40
2022-09-03T12:59:33.662Z,2.38
2022-09-03T13:02:08.285Z,2.33
2022-09-03T13:04:41.383Z,2.30
2022-09-03T13:07:16.533Z,2.10
2022-09-03T13:09:49.557Z,2.40
2022-09-03T13:12:33.514Z,2.08
2022-09-03T13:15:11.068Z,2.25
2022-09-03T13:18:08.106Z,2.20
2022-09-03T13:20:47.157Z,2.50
2022-09-03T13:23:38.466Z,2.42
2022-09-03T13:26:19.545Z,2.35
2022-09-03T13:29:09.704Z,2.25
2022-09-03T13:31:45.956Z,2.40
2022-09-03T13:34:22.787Z,2.10
2022-09-03T13:36:56.453Z,2.55
2022-09-03T13:39:32.320Z,2.25
2022-09-03T13:42:08.377Z,2.10
2022-09-03T13:44:46.232Z,2.00
2022-09-03T13:47:33.213Z,2.40
2022-09-03T13:50:24.554Z,2.28
2022-09-03T13:52:59.710Z,2.38
2022-09-03T13:55:35.210Z,2.40
2022-09-03T13:58:09.733Z,2.30
2022-09-03T14:00:47.750Z,2.35
2022-09-03T14:03:32.909Z,2.33
2022-09-03T14:06:09.267Z,2.53
2022-09-03T14:08:58.822Z,2.47
2022-09-03T14:11:34.528Z,2.60
2022-09-03T14:14:15.441Z,2.13
2022-09-03T14:16:56.835Z,2.13
2022-09-03T14:19:40.194Z,2.42
2022-09-03T14:22:15.499Z,2.20
2022-09-03T14:24:51.014Z,2.38
2022-09-03T14:27:28.624Z,2.20
2022-09-03T14:30:03.101Z,2.00
2022-09-03T14:32:44.949Z,2.33
2022-09-03T14:35:29.788Z,2.35
2022-09-03T14:38:28.968Z,2.60
2022-09-03T14:41:07.438Z,2.53
2022-09-03T14:44:03.420Z,2.25
2022-09-03T14:46:49.608Z,2.20
2022-09-03T14:49:44.492Z,2.38
2022-09-03T14:52:41.491Z,2.13
2022-09-03T14:55:30.888Z,2.10
2022-09-03T14:58:19.110Z,2.25
2022-09-03T15:00:55.219Z,2.30
2022-09-03T15:03:51.919Z,2.15
2022-09-03T15:06:34.270Z,2.28
2022-09-03T15:09:34.486Z,2.40
2022-09-03T15:12:12.085Z,2.47
2022-09-03T15:14:49.249Z,2.72
2022-09-03T15:17:42.029Z,2.20
2022-09-03T15:20:23.919Z,2.22
2022-09-03T15:23:21.436Z,2.30
2022-09-03T15:26:08.037Z,2.20
2022-09-03T15:28:51.293Z,2.40
2022-09-03T15:31:26.473Z,3.40
2022-09-03T15:34:07.689Z,2.85
2022-09-03T15:36:39.952Z,3.30
2022-09-03T15:39:17.572Z,2.00
2022-09-03T15:41:54.003Z,2.33
2022-09-03T15:44:23.827Z,2.25
2022-09-03T15:46:58.618Z,2.17
2022-09-03T15:49:38.515Z,2.50
2022-09-03T15:52:25.257Z,2.40
2022-09-03T15:55:04.253Z,2.17
2022-09-03T15:57:40.967Z,2.42
2022-09-03T16:00:21.460Z,2.30
2022-09-03T16:02:59.382Z,2.28
2022-09-03T16:05:40.671Z,2.60
2022-09-03T16:08:19.383Z,2.50
2022-09-03T16:11:02.112Z,2.30
2022-09-03T16:13:45.654Z,2.38
2022-09-03T16:16:22.610Z,2.30
2022-09-03T16:19:02.174Z,2.25
2022-09-03T16:21:40.417Z,2.25
2022-09-03T16:24:19.117Z,2.30
2022-09-03T16:26:57.948Z,2.40
2022-09-03T16:29:31.206Z,2.20
2022-09-03T16:32:14.235Z,2.63
2022-09-03T16:34:51.966Z,2.28
2022-09-03T16:37:30.659Z,2.58
2022-09-03T16:40:11.879Z,2.40
2022-09-03T16:49:05.683Z,2.38
2022-09-03T16:51:42.433Z,2.10
2022-09-03T16:54:27.756Z,2.08
2022-09-03T16:57:10.032Z,2.60
2022-09-03T17:00:08.579Z,2.13
2022-09-03T17:03:07.045Z,1.90
2022-09-03T17:05:54.763Z,2.30
2022-09-03T17:08:33.983Z,2.10
2022-09-03T17:11:13.704Z,2.15
2022-09-03T17:14:01.462Z,2.50
2022-09-03T17:16:42.615Z,2.40
2022-09-03T17:19:20.777Z,2.10
2022-09-03T17:21:59.487Z,2.03
2022-09-03T17:24:45.475Z,2.45
2022-09-03T17:27:38.863Z,2.30
2022-09-03T17:30:12.078Z,2.58
2022-09-03T17:33:04.831Z,2.30
2022-09-03T17:35:40.618Z,2.30
2022-09-03T17:38:22.544Z,2.10
2022-09-03T17:41:03.955Z,2.17
2022-09-03T17:43:46.457Z,2.55
2022-09-03T17:46:30.534Z,2.60
2022-09-03T17:49:04.485Z,2.13
2022-09-03T17:51:41.305Z,2.22
2022-09-03T17:54:19.024Z,2.30
2022-09-03T17:56:57.028Z,2.70
2022-09-03T17:59:36.761Z,2.75
2022-09-03T18:02:12.337Z,2.50
2022-09-03T18:04:51.587Z,2.30
2022-09-03T18:07:28.472Z,2.55
2022-09-03T18:10:08.454Z,2.55
2022-09-03T18:13:03.507Z,2.40
2022-09-03T18:15:39.357Z,2.17
2022-09-03T18:18:18.667Z,2.28
2022-09-03T18:21:31.332Z,2.33
2022-09-03T18:24:23.611Z,2.80
2022-09-03T18:27:16.017Z,2.58
2022-09-03T18:30:07.862Z,2.63
2022-09-03T18:32:54.524Z,2.35
2022-09-03T18:35:50.286Z,2.40
2022-09-03T18:38:44.640Z,2.58
2022-09-03T18:42:11.548Z,2.83
2022-09-03T18:45:21.415Z,2.50
2022-09-03T18:48:21.128Z,2.50
2022-09-03T18:51:14.763Z,2.80
2022-09-03T18:54:12.701Z,2.65
2022-09-03T18:57:05.399Z,2.70
2022-09-03T19:00:24.321Z,2.42
2022-09-03T19:03:44.266Z,2.80
2022-09-03T19:06:42.179Z,2.90
2022-09-03T19:09:42.831Z,3.28
2022-09-03T19:12:40.979Z,3.15
2022-09-03T19:15:33.795Z,2.78
2022-09-03T19:18:29.222Z,3.22
2022-09-03T19:21:28.307Z,3.20
2022-09-03T19:24:18.804Z,2.83
2022-09-03T19:27:50.089Z,3.10
2022-09-03T19:30:28.512Z,3.10
2022-09-03T19:33:29.861Z,2.95
2022-09-03T19:36:27.892Z,3.30
2022-09-03T19:39:27.610Z,4.80
2022-09-03T19:42:28.051Z,4.55
2022-09-03T19:45:26.304Z,3.55
2022-09-03T19:48:27.866Z,3.33
2022-09-03T19:51:23.435Z,2.67
2022-09-03T19:54:10.551Z,3.08
2022-09-03T19:56:58.381Z,2.88
2022-09-03T19:59:55.044Z,3.00
2022-09-03T20:02:42.959Z,2.88
2022-09-03T20:05:35.277Z,3.30
2022-09-03T20:08:23.412Z,3.88
2022-09-03T20:10:59.373Z,4.10
2022-09-03T20:13:28.932Z,4.75
2022-09-03T20:16:08.275Z,5.80
2022-09-03T20:18:44.630Z,5.65
2022-09-03T20:21:24.166Z,5.60
2022-09-03T20:24:01.038Z,4.00
2022-09-03T20:26:41.357Z,3.40
2022-09-03T20:29:28.942Z,3.45
2022-09-03T20:32:05.170Z,3.45
2022-09-03T20:34:42.429Z,3.00
2022-09-03T20:37:28.899Z,2.88
2022-09-03T20:40:10.676Z,3.20
2022-09-03T20:43:00.645Z,2.80
2022-09-03T20:45:43.756Z,2.63
2022-09-03T20:48:25.682Z,3.10
2022-09-03T20:51:01.747Z,3.00
2022-09-03T20:54:02.522Z,2.95
2022-09-03T20:56:39.031Z,2.97
2022-09-03T20:59:15.627Z,3.25
2022-09-03T21:01:54.062Z,3.08
2022-09-03T21:04:42.009Z,3.00
2022-09-03T21:07:22.367Z,3.28
2022-09-03T21:10:00.096Z,3.20
2022-09-03T21:12:39.927Z,3.55
2022-09-03T21:15:17.472Z,3.10
2022-09-03T21:18:00.660Z,3.03
2022-09-03T21:20:44.201Z,2.90
2022-09-03T21:23:21.961Z,3.20
2022-09-03T21:25:58.861Z,3.40
2022-09-03T21:28:37.674Z,3.33
2022-09-03T21:31:17.584Z,3.50
2022-09-03T21:33:50.462Z,3.20
2022-09-03T21:36:30.592Z,3.22
2022-09-03T21:39:03.188Z,3.00
2022-09-03T21:41:38.304Z,3.30
2022-09-03T21:44:12.123Z,3.90
2022-09-03T21:46:48.799Z,3.25
2022-09-03T21:49:22.254Z,3.22
2022-09-03T21:52:00.297Z,3.42
2022-09-03T21:54:31.385Z,3.40
2022-09-03T21:57:12.629Z,3.50
2022-09-03T22:00:09.298Z,3.20
2022-09-03T22:02:44.970Z,3.70
2022-09-03T22:05:15.247Z,3.60
2022-09-03T22:07:56.921Z,3.70
2022-09-03T22:10:32.096Z,3.80
2022-09-03T22:13:15.140Z,4.00
2022-09-03T22:15:51.392Z,3.50
2022-09-03T22:18:28.958Z,3.15
2022-09-03T22:21:05.536Z,3.60
2022-09-03T22:23:44.467Z,3.65
2022-09-03T22:26:27.215Z,3.78
2022-09-03T22:29:07.280Z,3.60
2022-09-03T22:31:45.930Z,3.58
2022-09-03T22:34:28.059Z,4.15
2022-09-03T22:37:03.910Z,4.18
2022-09-03T22:39:41.786Z,4.15
2022-09-03T22:42:32.774Z,4.72
2022-09-03T22:45:22.054Z,5.00
2022-09-03T22:48:04.113Z,4.20
2022-09-03T22:50:37.167Z,4.28
2022-09-03T22:53:21.986Z,4.03
2022-09-03T22:56:00.734Z,4.53
2022-09-03T22:58:35.775Z,4.50
2022-09-03T23:01:09.990Z,4.47
2022-09-03T23:03:46.983Z,4.38
2022-09-03T23:06:25.704Z,3.78
2022-09-03T23:09:01.779Z,4.22
2022-09-03T23:11:39.130Z,4.60
2022-09-03T23:14:12.762Z,4.50
2022-09-03T23:16:47.076Z,4.57
2022-09-03T23:21:55.401Z,4.72
2022-09-03T23:24:31.841Z,4.43
2022-09-03T23:27:07.526Z,5.20
2022-09-03T23:29:40.702Z,5.32
2022-09-03T23:32:10.846Z,5.88
2022-09-03T23:34:40.990Z,5.25
2022-09-03T23:37:34.491Z,4.88
2022-09-03T23:40:26.490Z,5.00
2022-09-03T23:43:14.989Z,5.20
2022-09-03T23:45:51.414Z,4.40
2022-09-03T23:48:34.686Z,4.72
2022-09-03T23:51:13.008Z,4.45
2022-09-03T23:53:53.445Z,4.57
2022-09-03T23:56:50.602Z,4.07
2022-09-03T23:59:40.404Z,4.03
